Time;durP1;ratioP1;P1;durP2;ratioP2;P2;SDS_P1;SDS_P2;PMS_P1;PMS_P2;Temp;Humidity;BMP_temperature;BMP_pressure;BME280_temperature;BME280_humidity;BME280_pressure;Samples;Min_cycle;Max_cycle;Signal;HPM_P1;HPM_P2
2023/11/26 00:00:47;;;;;;;56.30;3.00;;;;;;;;;;5055027;28;20210;-70
2023/11/26 00:03:14;;;;;;;55.80;2.90;;;;;;;;;;5054839;28;20595;-72
2023/11/26 00:05:42;;;;;;;55.97;2.72;;;;;;;;;;5054852;28;20203;-70
2023/11/26 00:08:10;;;;;;;56.08;2.65;;;;;;;;;;5054692;28;20206;-71
2023/11/26 00:10:37;;;;;;;56.10;2.92;;;;;;;;;;5054600;28;20226;-70
2023/11/26 00:13:04;;;;;;;56.25;3.10;;;;;;;;;;5054733;28;20738;-71
2023/11/26 00:15:31;;;;;;;55.97;2.88;;;;;;;;;;5054863;28;20207;-71
2023/11/26 00:17:58;;;;;;;56.08;2.90;;;;;;;;;;5054967;28;20218;-71
2023/11/26 00:20:25;;;;;;;56.10;2.67;;;;;;;;;;5054501;28;20199;-71
2023/11/26 00:22:52;;;;;;;56.30;3.28;;;;;;;;;;5054548;28;20725;-71
2023/11/26 00:25:21;;;;;;;55.97;2.50;;;;;;;;;;5054277;28;20213;-71
2023/11/26 00:27:48;;;;;;;56.17;2.53;;;;;;;;;;5054104;28;20585;-71
2023/11/26 00:30:15;;;;;;;56.33;3.00;;;;;;;;;;5054403;28;20231;-72
2023/11/26 00:32:42;;;;;;;56.00;3.15;;;;;;;;;;5054170;28;20233;-72
2023/11/26 00:35:09;;;;;;;56.20;3.13;;;;;;;;;;5053873;28;20206;-72
2023/11/26 00:37:36;;;;;;;55.90;2.78;;;;;;;;;;5054117;28;20225;-71
2023/11/26 00:40:05;;;;;;;56.03;2.80;;;;;;;;;;5054195;28;20206;-70
2023/11/26 00:42:33;;;;;;;56.67;3.28;;;;;;;;;;5054197;28;20221;-72
2023/11/26 00:45:01;;;;;;;56.03;2.60;;;;;;;;;;5054156;28;20206;-72
2023/11/26 00:47:28;;;;;;;56.08;2.65;;;;;;;;;;5054298;28;20204;-72
2023/11/26 00:49:58;;;;;;;55.88;2.53;;;;;;;;;;5053712;28;20229;-72
2023/11/26 00:52:25;;;;;;;55.97;2.50;;;;;;;;;;5053845;28;20219;-72
2023/11/26 00:54:52;;;;;;;55.97;2.75;;;;;;;;;;5053700;28;20202;-71
2023/11/26 00:57:19;;;;;;;56.20;2.60;;;;;;;;;;5054100;28;20216;-72
2023/11/26 00:59:47;;;;;;;55.97;2.60;;;;;;;;;;5053700;28;20286;-72
2023/11/26 01:02:15;;;;;;;56.40;3.13;;;;;;;;;;5053521;28;20227;-70
2023/11/26 01:04:42;;;;;;;55.97;2.72;;;;;;;;;;5053488;28;20207;-71
2023/11/26 01:07:09;;;;;;;55.75;2.80;;;;;;;;;;5053540;28;20219;-71
2023/11/26 01:09:36;;;;;;;55.97;2.70;;;;;;;;;;5053324;28;20255;-71
2023/11/26 01:12:03;;;;;;;56.05;2.90;;;;;;;;;;5053522;28;20245;-71
2023/11/26 01:14:30;;;;;;;56.05;2.70;;;;;;;;;;5045170;28;20622;-71
2023/11/26 01:16:59;;;;;;;56.15;2.90;;;;;;;;;;5053425;28;20210;-72
2023/11/26 01:19:26;;;;;;;57.33;2.90;;;;;;;;;;5052857;28;20203;-71
2023/11/26 01:21:54;;;;;;;55.97;2.97;;;;;;;;;;5053247;28;20606;-71
2023/11/26 01:24:21;;;;;;;62.95;3.80;;;;;;;;;;5053236;28;20203;-70
2023/11/26 01:26:48;;;;;;;56.00;2.60;;;;;;;;;;5053159;28;20199;-71
2023/11/26 01:29:15;;;;;;;56.10;2.70;;;;;;;;;;5052980;28;20230;-71
2023/11/26 01:31:42;;;;;;;55.97;2.70;;;;;;;;;;5052593;28;20301;-71
2023/11/26 01:34:10;;;;;;;55.90;2.50;;;;;;;;;;5052739;28;20207;-73
2023/11/26 01:36:37;;;;;;;55.70;2.70;;;;;;;;;;5052816;28;20207;-71
2023/11/26 01:39:07;;;;;;;56.38;3.17;;;;;;;;;;5052014;28;20211;-71
2023/11/26 01:41:34;;;;;;;56.10;2.70;;;;;;;;;;5051938;28;20233;-71
2023/11/26 01:44:01;;;;;;;56.05;2.60;;;;;;;;;;5052214;28;20203;-71
2023/11/26 01:46:29;;;;;;;56.55;3.63;;;;;;;;;;5052035;28;20206;-71
2023/11/26 01:48:56;;;;;;;55.97;2.60;;;;;;;;;;5052117;28;20740;-71
2023/11/26 01:51:27;;;;;;;56.00;2.90;;;;;;;;;;5052193;28;20253;-70
2023/11/26 01:53:55;;;;;;;56.80;4.32;;;;;;;;;;5052114;28;20661;-70
2023/11/26 01:56:23;;;;;;;56.10;2.90;;;;;;;;;;5052137;28;20241;-71
2023/11/26 01:58:50;;;;;;;55.90;2.80;;;;;;;;;;5051884;28;20453;-71
2023/11/26 02:01:20;;;;;;;55.90;2.80;;;;;;;;;;5052277;28;20477;-72
2023/11/26 02:03:47;;;;;;;55.80;3.00;;;;;;;;;;5052443;28;20228;-71
2023/11/26 02:06:15;;;;;;;55.95;2.85;;;;;;;;;;5052489;28;20212;-72
2023/11/26 02:08:44;;;;;;;56.00;2.65;;;;;;;;;;5052560;28;20293;-71
2023/11/26 02:11:11;;;;;;;55.90;2.60;;;;;;;;;;5052826;28;20239;-71
2023/11/26 02:13:45;;;;;;;55.97;2.80;;;;;;;;;;5053310;28;20203;-72
2023/11/26 02:16:12;;;;;;;55.97;2.80;;;;;;;;;;5053433;28;20211;-71
2023/11/26 02:18:39;;;;;;;56.80;3.17;;;;;;;;;;5053644;28;20622;-72
2023/11/26 02:21:07;;;;;;;56.42;3.88;;;;;;;;;;5052810;28;20265;-72
2023/11/26 02:23:35;;;;;;;55.95;2.72;;;;;;;;;;5052861;28;20294;-72
2023/11/26 02:26:04;;;;;;;56.00;2.90;;;;;;;;;;5052980;28;20604;-73
2023/11/26 02:28:31;;;;;;;55.78;2.70;;;;;;;;;;5053093;28;20214;-72
2023/11/26 02:30:59;;;;;;;56.70;4.20;;;;;;;;;;5052681;28;20230;-72
2023/11/26 02:33:26;;;;;;;56.20;3.20;;;;;;;;;;5051378;28;20272;-72
2023/11/26 02:35:53;;;;;;;56.10;3.20;;;;;;;;;;5051323;28;20207;-73
2023/11/26 02:38:20;;;;;;;56.08;3.00;;;;;;;;;;5051510;28;20260;-71
2023/11/26 02:40:48;;;;;;;55.67;2.50;;;;;;;;;;5051553;28;20200;-71
2023/11/26 02:43:17;;;;;;;56.20;2.95;;;;;;;;;;5051579;28;20338;-71
2023/11/26 02:45:45;;;;;;;56.08;3.08;;;;;;;;;;5052274;28;20202;-70
2023/11/26 02:48:12;;;;;;;56.00;2.70;;;;;;;;;;5052342;28;20220;-71
2023/11/26 02:50:39;;;;;;;56.10;2.80;;;;;;;;;;5052148;28;20317;-71
2023/11/26 02:53:06;;;;;;;55.97;3.00;;;;;;;;;;5052193;28;20235;-71
2023/11/26 02:55:34;;;;;;;56.08;2.95;;;;;;;;;;5051841;28;20206;-71
2023/11/26 02:58:01;;;;;;;56.25;2.92;;;;;;;;;;5051864;28;20211;-70
2023/11/26 03:00:30;;;;;;;59.53;3.75;;;;;;;;;;5051465;28;20206;-69
2023/11/26 03:02:58;;;;;;;55.97;3.00;;;;;;;;;;5051767;28;20231;-71
2023/11/26 03:05:25;;;;;;;56.17;2.85;;;;;;;;;;5051233;28;20300;-71
2023/11/26 03:07:57;;;;;;;56.78;3.40;;;;;;;;;;5051605;28;20202;-71
2023/11/26 03:13:13;;;;;;;55.97;2.70;;;;;;;;;;5051584;28;20216;-71
2023/11/26 03:15:41;;;;;;;56.08;3.03;;;;;;;;;;5052184;28;20575;-71
2023/11/26 03:18:09;;;;;;;56.08;2.80;;;;;;;;;;5052142;28;20210;-71
2023/11/26 03:20:37;;;;;;;56.08;2.60;;;;;;;;;;5051359;28;20194;-71
2023/11/26 03:23:04;;;;;;;55.95;2.67;;;;;;;;;;5051769;28;20714;-71
2023/11/26 03:25:31;;;;;;;55.95;2.83;;;;;;;;;;5050939;28;20679;-71
2023/11/26 03:27:59;;;;;;;56.30;3.33;;;;;;;;;;5051638;28;20211;-71
2023/11/26 03:30:26;;;;;;;56.00;2.63;;;;;;;;;;5051329;28;20223;-71
2023/11/26 03:32:56;;;;;;;55.97;2.80;;;;;;;;;;5051044;28;20223;-71
2023/11/26 03:35:23;;;;;;;55.80;2.80;;;;;;;;;;5051192;28;20229;-71
2023/11/26 03:37:51;;;;;;;56.10;2.90;;;;;;;;;;5051691;28;20203;-71
2023/11/26 03:40:19;;;;;;;56.10;2.90;;;;;;;;;;5051457;28;20203;-71
2023/11/26 03:42:46;;;;;;;58.35;3.97;;;;;;;;;;5052178;28;20245;-71
2023/11/26 03:45:13;;;;;;;56.08;2.60;;;;;;;;;;5051203;28;20280;-71
2023/11/26 03:47:40;;;;;;;55.97;2.53;;;;;;;;;;5051558;28;20230;-70
2023/11/26 03:50:11;;;;;;;55.90;2.70;;;;;;;;;;5051283;28;20731;-70
2023/11/26 03:52:39;;;;;;;56.30;3.42;;;;;;;;;;5051405;28;20725;-71
2023/11/26 03:55:06;;;;;;;56.10;2.90;;;;;;;;;;5051689;28;20617;-70
2023/11/26 03:57:35;;;;;;;56.00;2.47;;;;;;;;;;5051697;28;20261;-70
2023/11/26 04:00:03;;;;;;;55.88;2.90;;;;;;;;;;5051330;28;20238;-71
2023/11/26 04:02:30;;;;;;;56.30;3.40;;;;;;;;;;5051059;28;20234;-70
2023/11/26 04:04:57;;;;;;;56.15;2.63;;;;;;;;;;5054452;28;20198;-71
2023/11/26 04:07:25;;;;;;;55.88;2.75;;;;;;;;;;5055131;28;20250;-70
2023/11/26 04:09:53;;;;;;;56.80;4.00;;;;;;;;;;5054418;28;20307;-71
2023/11/26 04:12:20;;;;;;;55.97;3.05;;;;;;;;;;5054423;28;20737;-70
2023/11/26 04:14:54;;;;;;;56.20;3.10;;;;;;;;;;5054597;28;20204;-72
2023/11/26 04:17:21;;;;;;;56.20;3.20;;;;;;;;;;5055303;28;20209;-72
2023/11/26 04:19:49;;;;;;;55.97;2.60;;;;;;;;;;5054843;28;20207;-72
2023/11/26 04:22:16;;;;;;;55.97;2.85;;;;;;;;;;5054677;28;20231;-72
2023/11/26 04:24:45;;;;;;;56.00;2.90;;;;;;;;;;5054650;28;20238;-72
2023/11/26 04:27:12;;;;;;;56.00;2.88;;;;;;;;;;5054734;28;20233;-72
2023/11/26 04:29:39;;;;;;;56.30;3.08;;;;;;;;;;5054436;28;20206;-72
2023/11/26 04:32:07;;;;;;;56.00;2.88;;;;;;;;;;5054369;28;20227;-72
2023/11/26 04:34:34;;;;;;;56.05;2.80;;;;;;;;;;5054732;28;20238;-72
2023/11/26 04:37:01;;;;;;;56.08;2.97;;;;;;;;;;5054695;28;20218;-72
2023/11/26 04:39:28;;;;;;;56.05;2.97;;;;;;;;;;5054629;28;20208;-70
2023/11/26 04:41:57;;;;;;;55.88;2.85;;;;;;;;;;5054575;28;20219;-70
2023/11/26 04:44:24;;;;;;;56.00;2.70;;;;;;;;;;5054730;28;20217;-71
2023/11/26 04:46:51;;;;;;;56.10;3.22;;;;;;;;;;5054523;28;20200;-69
2023/11/26 04:49:19;;;;;;;55.90;2.55;;;;;;;;;;5054923;28;20207;-71
2023/11/26 04:51:46;;;;;;;56.20;2.88;;;;;;;;;;5054945;28;20230;-71
2023/11/26 04:54:13;;;;;;;56.67;3.03;;;;;;;;;;5054570;28;20211;-71
2023/11/26 04:56:40;;;;;;;55.88;2.70;;;;;;;;;;5054679;28;20591;-71
2023/11/26 04:59:09;;;;;;;56.50;3.35;;;;;;;;;;5054723;28;20210;-71
2023/11/26 05:01:38;;;;;;;57.20;4.07;;;;;;;;;;5054770;28;20703;-71
2023/11/26 05:04:06;;;;;;;56.08;2.63;;;;;;;;;;5054580;28;20211;-70
2023/11/26 05:06:33;;;;;;;56.20;2.88;;;;;;;;;;5054916;28;20711;-69
2023/11/26 05:09:00;;;;;;;55.92;2.80;;;;;;;;;;5054426;28;20222;-71
2023/11/26 05:11:27;;;;;;;55.97;2.95;;;;;;;;;;5054708;28;20231;-70
2023/11/26 05:13:54;;;;;;;56.08;2.45;;;;;;;;;;5054645;28;20217;-71
2023/11/26 05:16:23;;;;;;;55.97;2.95;;;;;;;;;;5054890;28;20210;-71
2023/11/26 05:18:50;;;;;;;55.78;2.80;;;;;;;;;;5054528;28;20210;-71
2023/11/26 05:21:18;;;;;;;56.08;2.90;;;;;;;;;;5054222;28;20230;-71
2023/11/26 05:23:45;;;;;;;55.97;2.75;;;;;;;;;;5053679;28;20209;-71
2023/11/26 05:26:14;;;;;;;56.15;3.30;;;;;;;;;;5053104;28;20214;-71
2023/11/26 05:28:41;;;;;;;56.28;3.13;;;;;;;;;;5053130;28;20207;-70
2023/11/26 05:31:08;;;;;;;55.85;2.63;;;;;;;;;;5052467;28;20237;-71
2023/11/26 05:33:37;;;;;;;56.13;3.10;;;;;;;;;;5052635;28;20211;-70
2023/11/26 05:36:05;;;;;;;55.90;2.80;;;;;;;;;;5052579;28;20574;-70
2023/11/26 05:38:32;;;;;;;56.15;3.10;;;;;;;;;;5052666;28;20214;-71
2023/11/26 05:40:59;;;;;;;56.20;2.60;;;;;;;;;;5052298;28;20575;-71
2023/11/26 05:43:27;;;;;;;55.88;2.60;;;;;;;;;;5051993;28;20214;-70
2023/11/26 05:45:54;;;;;;;55.78;3.17;;;;;;;;;;5052029;28;20309;-70
2023/11/26 05:48:21;;;;;;;55.90;2.70;;;;;;;;;;5052054;28;20213;-71
2023/11/26 05:50:49;;;;;;;56.05;2.78;;;;;;;;;;5052010;28;20712;-70
2023/11/26 05:53:18;;;;;;;56.15;2.70;;;;;;;;;;5052019;28;20292;-70
2023/11/26 05:55:45;;;;;;;56.25;2.88;;;;;;;;;;5051973;28;20310;-71
2023/11/26 05:58:12;;;;;;;56.17;3.03;;;;;;;;;;5051899;28;20213;-70
2023/11/26 06:00:39;;;;;;;55.88;3.05;;;;;;;;;;5051908;28;20207;-71
2023/11/26 06:03:06;;;;;;;56.20;2.80;;;;;;;;;;5052131;28;20229;-70
2023/11/26 06:05:35;;;;;;;56.00;2.97;;;;;;;;;;5052156;28;20682;-71
2023/11/26 06:08:03;;;;;;;56.00;2.88;;;;;;;;;;5052236;28;20618;-71
2023/11/26 06:10:30;;;;;;;56.08;3.05;;;;;;;;;;5051734;28;20230;-71
2023/11/26 06:12:57;;;;;;;55.95;2.90;;;;;;;;;;5052222;28;20234;-71
2023/11/26 06:15:25;;;;;;;55.97;2.90;;;;;;;;;;5052470;28;20214;-71
2023/11/26 06:17:52;;;;;;;56.10;2.80;;;;;;;;;;5053116;28;20421;-71
2023/11/26 06:20:19;;;;;;;56.30;3.20;;;;;;;;;;5052811;28;20203;-71
2023/11/26 06:22:46;;;;;;;56.00;3.00;;;;;;;;;;5053458;28;20222;-71
2023/11/26 06:25:15;;;;;;;55.65;2.63;;;;;;;;;;5053184;28;20214;-71
2023/11/26 06:27:42;;;;;;;56.10;2.70;;;;;;;;;;5053645;28;20564;-71
2023/11/26 06:30:10;;;;;;;56.08;3.00;;;;;;;;;;5052914;28;20202;-71
2023/11/26 06:32:37;;;;;;;56.20;3.13;;;;;;;;;;5052990;28;20219;-71
2023/11/26 06:35:05;;;;;;;55.97;2.65;;;;;;;;;;5053500;28;20504;-71
2023/11/26 06:37:32;;;;;;;56.30;3.05;;;;;;;;;;5053506;28;20268;-72
2023/11/26 06:39:59;;;;;;;55.97;2.80;;;;;;;;;;5052404;28;20218;-71
2023/11/26 06:42:27;;;;;;;55.65;2.70;;;;;;;;;;5052982;28;20625;-72
2023/11/26 06:44:55;;;;;;;57.95;3.55;;;;;;;;;;5053167;28;20571;-71
2023/11/26 06:47:23;;;;;;;56.03;2.70;;;;;;;;;;5054448;28;20207;-72
2023/11/26 06:49:50;;;;;;;55.78;2.70;;;;;;;;;;5053760;28;20267;-73
2023/11/26 06:52:17;;;;;;;57.75;3.30;;;;;;;;;;5053866;28;20246;-71
2023/11/26 06:54:44;;;;;;;56.00;2.80;;;;;;;;;;5054641;28;20204;-72
2023/11/26 06:57:11;;;;;;;57.10;2.90;;;;;;;;;;5053990;28;20206;-69
2023/11/26 06:59:39;;;;;;;55.95;2.92;;;;;;;;;;5051597;28;20217;-70
2023/11/26 07:02:08;;;;;;;55.88;2.50;;;;;;;;;;5052128;28;20236;-70
2023/11/26 07:04:35;;;;;;;56.38;3.55;;;;;;;;;;5052340;28;20215;-70
2023/11/26 07:07:02;;;;;;;56.15;2.90;;;;;;;;;;5051862;28;20226;-71
2023/11/26 07:09:29;;;;;;;56.05;3.15;;;;;;;;;;5051531;28;20227;-70
2023/11/26 07:11:57;;;;;;;55.70;2.75;;;;;;;;;;5052353;28;20614;-71
2023/11/26 07:14:24;;;;;;;55.88;3.20;;;;;;;;;;5051883;28;20249;-71
2023/11/26 07:16:54;;;;;;;55.75;2.75;;;;;;;;;;5052052;28;20200;-71
2023/11/26 07:19:21;;;;;;;55.97;2.85;;;;;;;;;;5052184;28;20218;-70
2023/11/26 07:21:48;;;;;;;55.78;2.80;;;;;;;;;;5055205;28;20695;-72
2023/11/26 07:24:16;;;;;;;55.97;2.70;;;;;;;;;;5054973;28;20210;-73
2023/11/26 07:26:43;;;;;;;55.90;2.72;;;;;;;;;;5051829;28;20215;-73
2023/11/26 07:29:11;;;;;;;56.17;2.97;;;;;;;;;;5051871;28;20210;-74
2023/11/26 07:31:38;;;;;;;56.08;2.97;;;;;;;;;;5051655;28;20277;-72
2023/11/26 07:34:07;;;;;;;55.90;2.70;;;;;;;;;;5051846;28;20219;-73
2023/11/26 07:36:34;;;;;;;55.90;2.70;;;;;;;;;;5054774;28;20300;-73
2023/11/26 07:39:01;;;;;;;56.10;3.15;;;;;;;;;;5057867;28;20203;-73
2023/11/26 07:41:28;;;;;;;55.80;2.80;;;;;;;;;;5062694;28;20714;-72
2023/11/26 07:43:55;;;;;;;56.00;2.80;;;;;;;;;;5063627;28;20267;-73
2023/11/26 07:46:23;;;;;;;55.80;2.55;;;;;;;;;;5062227;28;20207;-72
2023/11/26 07:48:50;;;;;;;55.90;2.70;;;;;;;;;;5062047;28;20198;-70
2023/11/26 07:51:19;;;;;;;55.70;2.80;;;;;;;;;;5061375;28;20233;-73
2023/11/26 07:53:46;;;;;;;55.80;2.90;;;;;;;;;;5060843;28;20206;-73
2023/11/26 07:56:13;;;;;;;55.67;2.50;;;;;;;;;;5060769;28;20250;-73
2023/11/26 07:58:41;;;;;;;55.90;2.90;;;;;;;;;;5060918;28;20208;-71
2023/11/26 08:01:08;;;;;;;55.78;2.58;;;;;;;;;;5061207;28;20453;-73
2023/11/26 08:03:36;;;;;;;55.80;2.40;;;;;;;;;;5060708;28;20209;-73
2023/11/26 08:06:03;;;;;;;55.90;2.72;;;;;;;;;;5061588;28;20242;-72
2023/11/26 08:08:36;;;;;;;55.90;2.70;;;;;;;;;;5061190;28;20203;-73
2023/11/26 08:11:05;;;;;;;56.20;3.23;;;;;;;;;;5060968;28;20211;-73
2023/11/26 08:13:35;;;;;;;56.10;3.20;;;;;;;;;;5060821;28;20511;-73
2023/11/26 08:16:07;;;;;;;55.88;2.60;;;;;;;;;;5061065;28;20199;-73
2023/11/26 08:18:35;;;;;;;55.58;2.50;;;;;;;;;;5059910;28;20219;-73
2023/11/26 08:21:06;;;;;;;55.70;2.42;;;;;;;;;;5059579;28;20207;-73
2023/11/26 08:23:34;;;;;;;57.95;4.28;;;;;;;;;;5058926;28;20217;-73
2023/11/26 08:26:02;;;;;;;55.70;2.42;;;;;;;;;;5058528;28;20202;-72
2023/11/26 08:28:29;;;;;;;55.80;2.60;;;;;;;;;;5057923;28;20306;-71
2023/11/26 08:30:56;;;;;;;55.67;2.83;;;;;;;;;;5056685;28;20450;-72
2023/11/26 08:33:25;;;;;;;55.90;2.57;;;;;;;;;;5057239;28;20829;-72
2023/11/26 08:35:57;;;;;;;55.83;2.85;;;;;;;;;;5056414;28;20450;-73
2023/11/26 08:38:24;;;;;;;55.80;2.90;;;;;;;;;;5056338;28;20297;-71
2023/11/26 08:40:54;;;;;;;56.00;2.80;;;;;;;;;;5055755;28;20817;-72
2023/11/26 08:43:22;;;;;;;55.70;2.50;;;;;;;;;;5055823;28;20813;-72
2023/11/26 08:45:51;;;;;;;55.37;2.80;;;;;;;;;;5058882;28;20649;-72
2023/11/26 08:48:18;;;;;;;55.67;2.80;;;;;;;;;;5059653;28;20473;-73
2023/11/26 08:50:46;;;;;;;56.00;2.90;;;;;;;;;;5061381;28;20477;-71
2023/11/26 08:53:13;;;;;;;55.63;2.63;;;;;;;;;;5062358;28;20326;-73
2023/11/26 08:55:40;;;;;;;56.15;2.90;;;;;;;;;;5062428;28;20454;-73
2023/11/26 08:58:09;;;;;;;56.28;3.00;;;;;;;;;;5062200;28;20211;-71
2023/11/26 09:00:36;;;;;;;55.90;3.10;;;;;;;;;;5060104;28;20207;-72
2023/11/26 09:03:03;;;;;;;56.40;3.50;;;;;;;;;;5056719;28;20466;-73
2023/11/26 09:05:30;;;;;;;55.77;2.60;;;;;;;;;;5056366;28;20489;-72
2023/11/26 09:07:57;;;;;;;55.60;2.50;;;;;;;;;;5056440;28;20454;-72
2023/11/26 09:10:24;;;;;;;55.50;2.50;;;;;;;;;;5055469;28;20476;-72
2023/11/26 09:12:52;;;;;;;55.60;2.30;;;;;;;;;;5054955;28;20503;-70
2023/11/26 09:15:20;;;;;;;55.97;2.87;;;;;;;;;;5054415;28;20452;-72
2023/11/26 09:17:48;;;;;;;55.90;2.40;;;;;;;;;;5055051;28;20457;-72
2023/11/26 09:20:15;;;;;;;55.57;2.70;;;;;;;;;;5054370;28;20720;-72
2023/11/26 09:22:43;;;;;;;55.90;2.80;;;;;;;;;;5053731;28;20470;-73
2023/11/26 09:25:13;;;;;;;55.67;2.53;;;;;;;;;;5054397;28;20454;-71
2023/11/26 09:27:40;;;;;;;55.80;2.70;;;;;;;;;;5052092;28;20460;-70
2023/11/26 09:30:09;;;;;;;55.97;2.93;;;;;;;;;;5053751;28;20433;-73
2023/11/26 09:32:38;;;;;;;55.97;2.90;;;;;;;;;;5054576;28;20489;-72
2023/11/26 09:35:06;;;;;;;55.67;2.40;;;;;;;;;;5054592;28;20454;-71
2023/11/26 09:37:33;;;;;;;55.67;2.67;;;;;;;;;;5054150;28;20446;-73
2023/11/26 09:40:01;;;;;;;55.77;2.80;;;;;;;;;;5054153;28;20460;-71
2023/11/26 09:42:28;;;;;;;55.67;2.70;;;;;;;;;;5054181;28;20470;-71
2023/11/26 09:44:55;;;;;;;55.57;2.20;;;;;;;;;;5053748;28;20454;-72
2023/11/26 09:47:22;;;;;;;55.90;2.83;;;;;;;;;;5054971;28;20447;-72
2023/11/26 09:49:51;;;;;;;55.90;2.60;;;;;;;;;;5054156;28;20810;-73
2023/11/26 09:52:19;;;;;;;58.93;3.40;;;;;;;;;;5054067;28;20487;-73
2023/11/26 09:54:46;;;;;;;55.70;2.70;;;;;;;;;;5052913;28;20446;-72
2023/11/26 09:57:13;;;;;;;55.47;2.40;;;;;;;;;;5053329;28;20447;-72
2023/11/26 09:59:40;;;;;;;55.80;2.40;;;;;;;;;;5054387;28;20458;-72
2023/11/26 10:02:09;;;;;;;56.27;2.80;;;;;;;;;;5051614;28;20470;-72
2023/11/26 10:04:46;;;;;;;56.10;2.67;;;;;;;;;;5053191;28;20545;-73
2023/11/26 10:07:14;;;;;;;55.87;2.80;;;;;;;;;;5053176;28;20442;-71
2023/11/26 10:09:41;;;;;;;55.73;2.50;;;;;;;;;;5053820;28;20917;-72
2023/11/26 10:12:09;;;;;;;56.00;2.90;;;;;;;;;;5056144;28;20496;-72
2023/11/26 10:14:36;;;;;;;56.50;3.03;;;;;;;;;;5054582;28;20441;-72
2023/11/26 10:17:10;;;;;;;55.53;2.50;;;;;;;;;;5059422;28;20473;-72
2023/11/26 10:19:37;;;;;;;55.70;2.20;;;;;;;;;;5059304;28;20768;-72
2023/11/26 10:22:04;;;;;;;68.73;2.93;;;;;;;;;;5054839;28;20464;-73
2023/11/26 10:24:33;;;;;;;55.67;2.63;;;;;;;;;;5053902;28;20456;-71
2023/11/26 10:27:00;;;;;;;55.70;2.70;;;;;;;;;;5047115;28;20446;-73
2023/11/26 10:29:29;;;;;;;55.67;2.70;;;;;;;;;;5054797;28;20449;-72
2023/11/26 10:32:04;;;;;;;55.70;2.70;;;;;;;;;;5053795;28;20568;-72
2023/11/26 10:34:32;;;;;;;55.70;2.70;;;;;;;;;;5052564;28;20995;-71
2023/11/26 10:36:59;;;;;;;55.73;2.73;;;;;;;;;;5052863;28;20455;-73
2023/11/26 10:39:27;;;;;;;55.80;2.87;;;;;;;;;;5052495;28;20970;-71
2023/11/26 10:41:56;;;;;;;55.90;2.53;;;;;;;;;;5051288;28;20484;-72
2023/11/26 10:44:24;;;;;;;55.80;2.70;;;;;;;;;;5051695;28;20442;-72
2023/11/26 10:46:51;;;;;;;55.57;2.30;;;;;;;;;;5051388;28;20458;-72
2023/11/26 10:49:24;;;;;;;55.67;2.40;;;;;;;;;;5051206;28;20453;-72
2023/11/26 10:52:04;;;;;;;55.80;2.53;;;;;;;;;;5051571;28;20473;-72
2023/11/26 10:54:33;;;;;;;55.47;2.53;;;;;;;;;;5051517;28;20450;-72
2023/11/26 10:57:08;;;;;;;55.57;2.10;;;;;;;;;;5051039;28;20447;-72
2023/11/26 10:59:37;;;;;;;55.57;1.90;;;;;;;;;;5050847;28;20529;-72
2023/11/26 11:02:05;;;;;;;55.70;2.03;;;;;;;;;;5051364;28;20459;-71
2023/11/26 11:04:35;;;;;;;55.47;2.13;;;;;;;;;;5051045;28;20447;-72
2023/11/26 11:07:03;;;;;;;55.73;2.20;;;;;;;;;;5051404;28;20446;-72
2023/11/26 11:09:38;;;;;;;55.60;2.53;;;;;;;;;;5050782;28;20523;-71
2023/11/26 11:12:09;;;;;;;55.77;2.53;;;;;;;;;;5051764;28;20500;-72
2023/11/26 11:14:36;;;;;;;55.60;2.10;;;;;;;;;;5055404;28;20446;-71
2023/11/26 11:17:03;;;;;;;55.50;2.10;;;;;;;;;;5055433;28;20442;-71
2023/11/26 11:19:49;;;;;;;55.47;1.90;;;;;;;;;;5055389;28;20876;-72
2023/11/26 11:22:16;;;;;;;55.17;2.00;;;;;;;;;;5055299;28;20842;-72
2023/11/26 11:24:43;;;;;;;55.60;2.20;;;;;;;;;;5054401;28;20452;-71
2023/11/26 11:27:12;;;;;;;56.07;2.80;;;;;;;;;;5054889;28;20445;-71
2023/11/26 11:29:42;;;;;;;56.07;2.97;;;;;;;;;;5054455;28;20446;-72
2023/11/26 11:32:09;;;;;;;55.70;2.60;;;;;;;;;;5054879;28;20861;-71
2023/11/26 11:34:36;;;;;;;55.40;2.17;;;;;;;;;;5054663;28;20542;-70
2023/11/26 11:37:07;;;;;;;55.63;2.07;;;;;;;;;;5054903;28;20454;-71
2023/11/26 11:39:44;;;;;;;55.30;2.57;;;;;;;;;;5054827;28;20485;-71
2023/11/26 11:42:13;;;;;;;55.67;2.20;;;;;;;;;;5054998;28;20465;-71
2023/11/26 11:44:41;;;;;;;56.10;2.30;;;;;;;;;;5054738;28;20536;-71
2023/11/26 11:47:09;;;;;;;55.80;2.53;;;;;;;;;;5054507;28;20934;-71
2023/11/26 11:49:56;;;;;;;55.67;2.17;;;;;;;;;;5054297;28;20457;-70
2023/11/26 11:52:23;;;;;;;55.60;2.20;;;;;;;;;;5054638;28;20500;-70
2023/11/26 11:54:59;;;;;;;55.37;2.10;;;;;;;;;;5054265;28;20454;-71
2023/11/26 11:57:29;;;;;;;55.70;2.03;;;;;;;;;;5054548;28;20873;-71
2023/11/26 11:59:56;;;;;;;55.60;2.10;;;;;;;;;;5054177;28;20978;-70
2023/11/26 12:02:24;;;;;;;55.87;2.30;;;;;;;;;;5054099;28;20466;-71
2023/11/26 12:04:51;;;;;;;55.17;2.00;;;;;;;;;;5054134;28;20450;-70
2023/11/26 12:07:19;;;;;;;55.50;2.00;;;;;;;;;;5054262;28;20489;-71
2023/11/26 12:09:47;;;;;;;55.60;2.40;;;;;;;;;;5053883;28;20462;-70
2023/11/26 12:12:18;;;;;;;55.53;2.10;;;;;;;;;;5054081;28;20472;-71
2023/11/26 12:14:47;;;;;;;55.73;2.80;;;;;;;;;;5053808;28;20748;-71
2023/11/26 12:17:15;;;;;;;55.50;2.03;;;;;;;;;;5054027;28;20445;-70
2023/11/26 12:19:43;;;;;;;55.40;2.00;;;;;;;;;;5053973;28;20796;-71
2023/11/26 12:22:10;;;;;;;55.50;2.00;;;;;;;;;;5053848;28;20476;-70
2023/11/26 12:24:38;;;;;;;55.77;2.10;;;;;;;;;;5052840;28;20447;-71
2023/11/26 12:27:06;;;;;;;55.53;2.20;;;;;;;;;;5045918;28;20844;-71
2023/11/26 12:29:34;;;;;;;55.43;2.20;;;;;;;;;;5054036;28;20458;-71
2023/11/26 12:32:05;;;;;;;55.80;2.00;;;;;;;;;;5053672;28;20966;-71
2023/11/26 12:34:37;;;;;;;55.73;2.47;;;;;;;;;;5053833;28;20538;-71
2023/11/26 12:37:05;;;;;;;56.00;1.93;;;;;;;;;;5053524;28;20453;-71
2023/11/26 12:39:33;;;;;;;55.73;2.40;;;;;;;;;;5053329;28;20451;-71
2023/11/26 12:42:00;;;;;;;55.53;2.13;;;;;;;;;;5053197;28;20475;-71
2023/11/26 12:44:27;;;;;;;55.57;2.40;;;;;;;;;;5053756;28;20451;-71
2023/11/26 12:47:06;;;;;;;55.47;2.20;;;;;;;;;;5053292;28;20454;-71
2023/11/26 12:49:33;;;;;;;55.67;2.10;;;;;;;;;;5053335;28;20790;-72
2023/11/26 12:52:00;;;;;;;55.90;2.13;;;;;;;;;;5052981;28;20975;-71
2023/11/26 12:54:27;;;;;;;55.67;2.30;;;;;;;;;;5052978;28;20490;-69
2023/11/26 12:56:56;;;;;;;55.73;1.93;;;;;;;;;;5053457;28;20457;-69
2023/11/26 12:59:24;;;;;;;55.87;2.17;;;;;;;;;;5053224;28;20454;-70
2023/11/26 13:01:51;;;;;;;55.00;1.80;;;;;;;;;;5053099;28;20470;-70
2023/11/26 13:04:29;;;;;;;55.30;2.00;;;;;;;;;;5052981;28;20444;-69
2023/11/26 13:06:57;;;;;;;55.07;1.80;;;;;;;;;;5052860;28;20820;-70
2023/11/26 13:09:24;;;;;;;55.10;2.40;;;;;;;;;;5052905;28;20468;-70
2023/11/26 13:11:51;;;;;;;55.70;1.90;;;;;;;;;;5052897;28;20470;-70
2023/11/26 13:14:21;;;;;;;55.47;2.27;;;;;;;;;;5049318;28;20482;-71
2023/11/26 13:16:48;;;;;;;55.57;2.07;;;;;;;;;;5052773;28;20451;-71
2023/11/26 13:19:15;;;;;;;55.87;2.00;;;;;;;;;;5052402;28;20455;-69
2023/11/26 13:21:50;;;;;;;55.47;1.90;;;;;;;;;;5052469;28;20983;-70
2023/11/26 13:24:17;;;;;;;55.90;2.00;;;;;;;;;;5052489;28;20451;-70
2023/11/26 13:26:44;;;;;;;55.70;2.10;;;;;;;;;;5052907;28;21021;-70
2023/11/26 13:29:12;;;;;;;55.83;1.97;;;;;;;;;;5052696;28;20451;-72
2023/11/26 13:31:40;;;;;;;55.37;2.10;;;;;;;;;;5052373;28;20986;-70
2023/11/26 13:34:08;;;;;;;55.57;2.40;;;;;;;;;;5052386;28;20485;-71
2023/11/26 13:36:35;;;;;;;56.00;2.23;;;;;;;;;;5052655;28;20813;-72
2023/11/26 13:39:05;;;;;;;55.77;2.40;;;;;;;;;;5052358;28;20451;-72
2023/11/26 13:41:32;;;;;;;55.70;2.30;;;;;;;;;;5052513;28;20528;-72
2023/11/26 13:43:59;;;;;;;55.80;2.60;;;;;;;;;;5053588;28;20818;-72
2023/11/26 13:46:26;;;;;;;55.63;2.40;;;;;;;;;;5054127;28;20999;-72
2023/11/26 13:48:53;;;;;;;55.87;2.40;;;;;;;;;;5053410;28;20457;-71
2023/11/26 13:51:21;;;;;;;55.80;2.10;;;;;;;;;;5053402;28;20545;-72
2023/11/26 13:53:48;;;;;;;55.83;2.33;;;;;;;;;;5053219;28;20479;-72
2023/11/26 13:56:16;;;;;;;55.83;2.50;;;;;;;;;;5052248;28;20454;-72
2023/11/26 13:58:44;;;;;;;55.70;2.40;;;;;;;;;;5052148;28;20826;-71
2023/11/26 14:01:11;;;;;;;55.60;2.37;;;;;;;;;;5051942;28;20782;-72
2023/11/26 14:03:39;;;;;;;55.93;2.47;;;;;;;;;;5052104;28;20454;-72
2023/11/26 14:06:08;;;;;;;55.73;2.30;;;;;;;;;;5051715;28;20496;-72
2023/11/26 14:08:36;;;;;;;56.10;2.70;;;;;;;;;;5051824;28;20883;-72
2023/11/26 14:11:03;;;;;;;56.30;2.90;;;;;;;;;;5051648;28;20545;-71
2023/11/26 14:13:31;;;;;;;55.77;2.10;;;;;;;;;;5051564;28;20478;-71
2023/11/26 14:15:59;;;;;;;55.77;2.53;;;;;;;;;;5051702;28;20828;-71
2023/11/26 14:18:26;;;;;;;55.37;2.27;;;;;;;;;;5051441;28;20966;-71
2023/11/26 14:20:54;;;;;;;55.80;2.30;;;;;;;;;;5051431;28;20537;-72
2023/11/26 14:23:22;;;;;;;55.67;2.40;;;;;;;;;;5051373;28;20813;-72
2023/11/26 14:25:52;;;;;;;55.97;2.60;;;;;;;;;;5051438;28;20450;-73
2023/11/26 14:28:19;;;;;;;55.90;2.77;;;;;;;;;;5051091;28;20446;-73
2023/11/26 14:30:48;;;;;;;55.20;2.10;;;;;;;;;;5050830;28;21007;-73
2023/11/26 14:33:15;;;;;;;55.67;2.30;;;;;;;;;;5051371;28;20496;-72
2023/11/26 14:35:43;;;;;;;55.73;2.43;;;;;;;;;;5050791;28;20458;-72
2023/11/26 14:38:10;;;;;;;55.97;2.50;;;;;;;;;;5050927;28;21009;-72